createdAt,value
2018-01-02T00:00:12.587Z,26.9
2018-01-02T00:01:12.596Z,26.8
2018-01-02T00:02:52.360Z,26.9
2018-01-02T00:03:55.496Z,26.9
2018-01-02T00:04:55.526Z,26.9
2018-01-02T00:05:52.714Z,26.8
2018-01-02T00:06:55.362Z,26.8
2018-01-02T00:07:55.421Z,26.8
2018-01-02T00:08:55.762Z,26.8
2018-01-02T00:09:52.650Z,26.8
2018-01-02T00:10:55.940Z,26.9
2018-01-02T00:11:56.045Z,26.9
2018-01-02T00:12:52.924Z,26.9
2018-01-02T00:13:53.289Z,26.8
2018-01-02T00:14:56.203Z,26.9
2018-01-02T00:15:56.267Z,26.8
2018-01-02T00:16:55.998Z,26.9
2018-01-02T00:17:56.321Z,26.9
2018-01-02T00:18:53.212Z,26.9
2018-01-02T00:19:56.492Z,26.9
2018-01-02T00:20:53.611Z,26.9
2018-01-02T00:21:56.521Z,26.9
2018-01-02T00:22:56.587Z,26.9
2018-01-02T00:23:53.450Z,26.8
2018-01-02T00:24:53.854Z,26.9
2018-01-02T00:25:53.554Z,26.9
2018-01-02T00:26:56.509Z,26.9
2018-01-02T00:27:56.878Z,26.9
2018-01-02T00:28:53.786Z,26.9
2018-01-02T00:29:54.180Z,26.9
2018-01-02T00:30:57.086Z,26.9
2018-01-02T00:31:54.266Z,26.9
2018-01-02T00:32:57.250Z,26.9
2018-01-02T00:33:57.292Z,26.9
2018-01-02T00:34:57.318Z,26.9
2018-01-02T00:35:54.197Z,26.9
2018-01-02T00:36:54.625Z,26.8
2018-01-02T00:37:54.638Z,26.9
2018-01-02T00:38:57.293Z,26.9
2018-01-02T00:39:54.735Z,26.9
2018-01-02T00:40:57.363Z,26.9
2018-01-02T00:41:54.877Z,26.9
2018-01-02T00:42:57.529Z,26.9
2018-01-02T00:43:54.740Z,26.9
2018-01-02T00:44:54.772Z,26.9
2018-01-02T00:45:54.768Z,26.9
2018-01-02T00:46:55.052Z,26.9
2018-01-02T00:47:54.840Z,26.9
2018-01-02T00:48:58.148Z,26.9
2018-01-02T00:49:57.748Z,26.9
2018-01-02T00:50:54.880Z,26.9
2018-01-02T00:51:55.299Z,26.8
2018-01-02T00:52:58.213Z,26.9
2018-01-02T00:53:58.012Z,26.9
2018-01-02T00:54:55.475Z,26.9
2018-01-02T00:55:58.094Z,26.8
2018-01-02T00:56:58.524Z,26.9
2018-01-02T00:57:58.514Z,26.9
2018-01-02T00:58:55.425Z,26.9
2018-01-02T00:59:58.682Z,26.9
2018-01-02T01:00:55.920Z,26.9
2018-01-02T01:01:58.444Z,26.8
2018-01-02T01:02:59.180Z,26.8
2018-01-02T01:03:56.060Z,26.8
2018-01-02T01:04:56.053Z,26.8
2018-01-02T01:05:55.810Z,26.8
2018-01-02T01:06:55.801Z,26.9
2018-01-02T01:07:55.858Z,26.8
2018-01-02T01:08:59.106Z,26.8
2018-01-02T01:09:56.019Z,26.9
2018-01-02T01:10:58.839Z,26.8
2018-01-02T01:11:59.251Z,26.8
2018-01-02T01:12:55.996Z,26.8
2018-01-02T01:13:59.381Z,26.8
2018-01-02T01:14:56.530Z,26.8
2018-01-02T01:15:57.095Z,26.8
2018-01-02T01:16:59.549Z,26.8
2018-01-02T01:17:56.331Z,26.8
2018-01-02T01:18:56.367Z,26.8
2018-01-02T01:19:59.606Z,26.8
2018-01-02T01:20:56.550Z,26.8
2018-01-02T01:21:56.833Z,26.8
2018-01-02T01:22:59.795Z,26.8
2018-01-02T01:23:56.829Z,26.8
2018-01-02T01:24:59.868Z,26.8
2018-01-02T01:25:59.842Z,26.8
2018-01-02T01:26:59.848Z,26.9
2018-01-02T01:27:57.082Z,26.8
2018-01-02T01:28:59.984Z,26.8
2018-01-02T01:29:56.813Z,26.8
2018-01-02T01:30:57.184Z,26.8
2018-01-02T01:31:57.211Z,26.8
2018-01-02T01:32:56.937Z,26.8
2018-01-02T01:33:56.989Z,26.8
2018-01-02T01:34:57.086Z,26.8
2018-01-02T01:35:57.391Z,26.8
2018-01-02T01:37:00.027Z,26.9
2018-01-02T01:37:57.515Z,26.8
2018-01-02T01:38:57.258Z,26.8
2018-01-02T01:39:57.346Z,26.8
2018-01-02T01:40:57.308Z,26.8
2018-01-02T01:41:57.416Z,26.8
2018-01-02T01:42:57.546Z,26.8
2018-01-02T01:44:00.827Z,26.8
2018-01-02T01:44:57.631Z,26.8
2018-01-02T01:46:00.544Z,26.8
2018-01-02T01:47:01.001Z,26.8
2018-01-02T01:47:57.820Z,26.8
2018-01-02T01:49:01.114Z,26.8
2018-01-02T01:50:01.191Z,26.8
2018-01-02T01:51:01.263Z,26.8
2018-01-02T01:51:58.207Z,26.8
2018-01-02T01:53:01.346Z,26.8
2018-01-02T01:53:58.273Z,26.8
2018-01-02T01:54:58.254Z,26.8
2018-01-02T01:55:58.579Z,26.8
2018-01-02T01:57:01.522Z,26.9
2018-01-02T01:57:58.753Z,26.8
2018-01-02T01:59:01.328Z,26.8
2018-01-02T01:59:58.532Z,26.9
2018-01-02T02:00:58.880Z,26.8
2018-01-02T02:01:58.638Z,26.9
2018-01-02T02:02:58.634Z,26.9
2018-01-02T02:03:59.015Z,26.8
2018-01-02T02:04:59.076Z,26.9
2018-01-02T02:05:59.140Z,26.8
2018-01-02T02:07:02.078Z,26.9
2018-01-02T02:08:01.844Z,26.9
2018-01-02T02:09:01.925Z,26.9
2018-01-02T02:09:59.393Z,26.8
2018-01-02T02:11:02.303Z,26.8
2018-01-02T02:11:59.130Z,26.8
2018-01-02T02:12:59.103Z,26.8
2018-01-02T02:13:59.397Z,26.8
2018-01-02T02:14:59.489Z,26.8
2018-01-02T02:15:59.546Z,26.8
2018-01-02T02:16:59.185Z,26.8
2018-01-02T02:17:59.355Z,26.8
2018-01-02T02:18:59.253Z,26.8
2018-01-02T02:20:02.558Z,26.8
2018-01-02T02:21:02.625Z,26.8
2018-01-02T02:22:02.664Z,26.8
2018-01-02T02:22:59.490Z,26.8
2018-01-02T02:23:59.529Z,26.8
2018-01-02T02:25:02.774Z,26.8
2018-01-02T02:26:02.869Z,26.8
2018-01-02T02:26:59.745Z,26.8
2018-01-02T02:28:00.126Z,26.8
2018-01-02T02:29:00.205Z,26.8
2018-01-02T02:30:00.247Z,26.8
2018-01-02T02:31:00.215Z,26.8
2018-01-02T02:32:00.012Z,26.8
2018-01-02T02:33:03.224Z,26.8
2018-01-02T02:34:03.399Z,26.8
2018-01-02T02:35:03.017Z,26.8
2018-01-02T02:36:00.205Z,26.8
2018-01-02T02:37:03.144Z,26.8
2018-01-02T02:38:03.261Z,26.8
2018-01-02T02:39:00.367Z,26.8
2018-01-02T02:40:00.428Z,26.8
2018-01-02T02:41:03.678Z,26.8
2018-01-02T02:42:00.621Z,26.8
2018-01-02T02:43:00.968Z,26.8
2018-01-02T02:44:03.583Z,26.8
2018-01-02T02:45:00.810Z,26.8
2018-01-02T02:46:01.095Z,26.8
2018-01-02T02:47:04.076Z,26.8
2018-01-02T02:48:00.941Z,26.8
2018-01-02T02:49:03.879Z,26.8
2018-01-02T02:50:01.084Z,26.8
2018-01-02T02:51:01.440Z,26.8
2018-01-02T02:52:01.432Z,26.8
2018-01-02T02:53:01.217Z,26.9
2018-01-02T02:54:04.106Z,26.8
2018-01-02T02:55:01.608Z,26.8
2018-01-02T02:56:04.526Z,26.8
2018-01-02T02:57:01.379Z,26.8
2018-01-02T02:58:01.675Z,26.8
2018-01-02T02:59:01.422Z,26.9
2018-01-02T03:00:01.514Z,26.8
2018-01-02T03:01:01.783Z,26.8
2018-01-02T03:02:04.770Z,26.9
2018-01-02T03:03:01.896Z,26.9
2018-01-02T03:04:04.769Z,26.9
2018-01-02T03:05:04.859Z,26.9
2018-01-02T03:06:04.895Z,26.9
2018-01-02T03:07:04.992Z,26.9
2018-01-02T03:08:02.135Z,26.8
2018-01-02T03:09:01.869Z,26.9
2018-01-02T03:10:01.913Z,26.9
2018-01-02T03:11:05.179Z,26.8
2018-01-02T03:12:02.369Z,26.8
2018-01-02T03:13:02.345Z,26.8
2018-01-02T03:14:02.423Z,26.8
2018-01-02T03:15:02.527Z,26.8
2018-01-02T03:16:02.139Z,26.8
2018-01-02T03:17:02.245Z,26.8
2018-01-02T03:18:02.246Z,26.8
2018-01-02T03:19:05.108Z,26.8
2018-01-02T03:20:02.589Z,26.8
2018-01-02T03:21:05.472Z,26.8
2018-01-02T03:22:05.475Z,26.8
2018-01-02T03:23:02.377Z,26.8
2018-01-02T03:24:05.296Z,26.8
2018-01-02T03:25:02.557Z,26.8
2018-01-02T03:26:05.781Z,26.8
2018-01-02T03:27:02.894Z,26.8
2018-01-02T03:28:05.522Z,26.8
2018-01-02T03:29:02.691Z,26.8
2018-01-02T03:30:03.085Z,26.8
2018-01-02T03:31:02.806Z,26.8
2018-01-02T03:32:02.885Z,26.8
2018-01-02T03:33:06.088Z,26.8
2018-01-02T03:34:06.083Z,26.8
2018-01-02T03:35:06.162Z,26.8
2018-01-02T03:36:02.906Z,26.8
2018-01-02T03:37:02.946Z,26.8
2018-01-02T03:38:03.016Z,26.8
2018-01-02T03:39:06.205Z,26.8
2018-01-02T03:40:03.139Z,26.8
2018-01-02T03:41:03.314Z,26.8
2018-01-02T03:42:03.211Z,26.8
2018-01-02T03:43:06.161Z,26.8
2018-01-02T03:44:06.585Z,26.8
2018-01-02T03:45:03.699Z,26.8
2018-01-02T03:46:06.678Z,26.8
2018-01-02T03:47:03.817Z,26.8
2018-01-02T03:48:06.709Z,26.8
2018-01-02T03:49:06.410Z,26.8
2018-01-02T03:50:06.492Z,26.8
2018-01-02T03:51:04.055Z,26.8
2018-01-02T03:52:06.922Z,26.8
2018-01-02T03:53:03.796Z,26.8
2018-01-02T03:54:07.001Z,26.8
2018-01-02T03:55:03.954Z,26.8
2018-01-02T03:56:04.321Z,26.8
2018-01-02T03:57:04.337Z,26.8
2018-01-02T03:58:07.180Z,26.8
2018-01-02T03:59:04.004Z,26.8
2018-01-02T04:00:04.142Z,26.8
2018-01-02T04:01:07.883Z,26.8
2018-01-02T04:02:04.208Z,26.8
2018-01-02T04:03:04.530Z,26.8
2018-01-02T04:04:07.460Z,26.8
2018-01-02T04:05:04.339Z,26.8
2018-01-02T04:06:04.631Z,26.8
2018-01-02T04:07:04.445Z,26.8
2018-01-02T04:08:04.490Z,26.8
2018-01-02T04:09:04.775Z,26.8
2018-01-02T04:10:07.333Z,26.8
2018-01-02T04:11:04.498Z,26.8
2018-01-02T04:12:07.746Z,26.8
2018-01-02T04:13:04.692Z,26.8
2018-01-02T04:14:04.949Z,26.8
2018-01-02T04:15:05.059Z,26.8
2018-01-02T04:16:04.852Z,26.8
2018-01-02T04:17:08.057Z,26.8
2018-01-02T04:18:05.253Z,26.8
2018-01-02T04:19:07.827Z,26.8
2018-01-02T04:20:05.361Z,26.8
2018-01-02T04:21:07.928Z,26.8
2018-01-02T04:22:07.981Z,26.8
2018-01-02T04:23:05.484Z,26.8
2018-01-02T04:24:05.218Z,26.8
2018-01-02T04:25:08.456Z,26.8
2018-01-02T04:26:08.500Z,26.8
2018-01-02T04:27:08.560Z,26.8
2018-01-02T04:28:08.664Z,26.8
2018-01-02T04:29:05.763Z,26.8
2018-01-02T04:30:05.827Z,26.8
2018-01-02T04:31:05.475Z,26.8
2018-01-02T04:32:08.830Z,26.8
2018-01-02T04:33:05.850Z,26.8
2018-01-02T04:34:05.619Z,26.8
2018-01-02T04:35:05.968Z,26.8
2018-01-02T04:36:05.977Z,26.8
2018-01-02T04:37:05.750Z,26.8
2018-01-02T04:38:06.061Z,26.8
2018-01-02T04:39:05.802Z,26.8
2018-01-02T04:40:05.888Z,26.8
2018-01-02T04:41:09.167Z,26.8
2018-01-02T04:42:06.017Z,26.8
2018-01-02T04:43:08.928Z,26.8
2018-01-02T04:44:06.462Z,26.8
2018-01-02T04:45:06.474Z,26.8
2018-01-02T04:46:06.443Z,26.8
2018-01-02T04:47:06.201Z,26.8
2018-01-02T04:48:06.571Z,26.8
2018-01-02T04:49:06.621Z,26.8
2018-01-02T04:50:06.642Z,26.8
2018-01-02T04:51:06.689Z,26.7
2018-01-02T04:52:09.672Z,26.8
2018-01-02T04:53:06.596Z,26.7
2018-01-02T04:54:06.547Z,26.8
2018-01-02T04:55:06.931Z,26.8
2018-01-02T04:56:09.859Z,26.8
2018-01-02T04:57:06.622Z,26.8
2018-01-02T04:58:07.025Z,26.8
2018-01-02T04:59:10.016Z,26.8
2018-01-02T05:00:07.177Z,26.8
2018-01-02T05:01:10.115Z,26.8
2018-01-02T05:02:07.008Z,26.8
2018-01-02T05:03:07.023Z,26.8
2018-01-02T05:04:07.121Z,26.8
2018-01-02T05:05:09.989Z,26.8
2018-01-02T05:06:07.146Z,26.7
2018-01-02T05:07:07.178Z,26.8
2018-01-02T05:08:07.634Z,26.8
2018-01-02T05:09:10.193Z,26.8
2018-01-02T05:10:07.672Z,26.9
2018-01-02T05:11:07.416Z,26.8
2018-01-02T05:12:07.481Z,26.9
2018-01-02T05:13:07.862Z,26.9
2018-01-02T05:14:07.639Z,26.8
2018-01-02T05:15:07.740Z,26.9
2018-01-02T05:16:10.984Z,26.8
2018-01-02T05:17:07.895Z,26.9
2018-01-02T05:18:11.145Z,26.9
2018-01-02T05:19:10.871Z,26.9
2018-01-02T05:20:11.217Z,26.9
2018-01-02T05:21:08.117Z,26.8
2018-01-02T05:22:08.478Z,26.9
2018-01-02T05:23:08.244Z,26.9
2018-01-02T05:24:11.504Z,26.9
2018-01-02T05:25:08.327Z,26.9
2018-01-02T05:26:08.733Z,26.9
2018-01-02T05:27:08.551Z,26.9
2018-01-02T05:28:11.402Z,26.9
2018-01-02T05:29:11.821Z,26.8
2018-01-02T05:30:08.734Z,26.9
2018-01-02T05:31:08.810Z,26.9
2018-01-02T05:32:11.701Z,26.9
2018-01-02T05:33:09.248Z,26.9
2018-01-02T05:34:12.148Z,26.9
2018-01-02T05:35:12.290Z,26.8
2018-01-02T05:36:12.187Z,26.9
2018-01-02T05:37:09.116Z,26.9
2018-01-02T05:38:09.156Z,26.9
2018-01-02T05:39:09.139Z,26.8
2018-01-02T05:40:12.418Z,26.9
2018-01-02T05:41:09.250Z,26.8
2018-01-02T05:42:09.307Z,26.9
2018-01-02T05:43:09.654Z,26.9
2018-01-02T05:44:12.251Z,26.9
2018-01-02T05:45:12.640Z,26.9
2018-01-02T05:46:09.519Z,26.9
2018-01-02T05:47:09.812Z,26.9
2018-01-02T05:48:12.745Z,26.9
2018-01-02T05:49:09.610Z,26.9
2018-01-02T05:50:12.870Z,26.9
2018-01-02T05:51:12.946Z,26.9
2018-01-02T05:52:09.742Z,26.8
2018-01-02T05:53:12.696Z,26.9
2018-01-02T05:54:10.183Z,26.8
2018-01-02T05:55:09.938Z,26.9
2018-01-02T05:56:13.176Z,26.9
2018-01-02T05:57:12.934Z,26.8
2018-01-02T05:58:10.112Z,26.9
2018-01-02T05:59:10.218Z,26.8
2018-01-02T06:00:10.238Z,26.9
2018-01-02T06:01:10.584Z,26.9
2018-01-02T06:02:13.207Z,26.9
2018-01-02T06:03:10.366Z,26.9
2018-01-02T06:04:13.578Z,26.9
2018-01-02T06:05:13.562Z,26.9
2018-01-02T06:06:10.461Z,26.9
2018-01-02T06:07:10.462Z,26.9
2018-01-02T06:08:13.444Z,26.9
2018-01-02T06:09:13.551Z,26.9
2018-01-02T06:10:10.657Z,26.9
2018-01-02T06:11:10.785Z,26.9
2018-01-02T06:12:13.884Z,26.9
2018-01-02T06:13:13.688Z,26.9
2018-01-02T06:14:11.184Z,26.9
2018-01-02T06:15:10.974Z,26.9
2018-01-02T06:16:11.174Z,26.9
2018-01-02T06:17:14.396Z,26.9
2018-01-02T06:18:14.404Z,26.9
2018-01-02T06:19:11.549Z,26.9
2018-01-02T06:20:11.554Z,26.9
2018-01-02T06:21:11.343Z,26.9
2018-01-02T06:22:11.722Z,26.9
2018-01-02T06:23:14.588Z,26.9
2018-01-02T06:24:14.694Z,26.9
2018-01-02T06:25:11.898Z,26.9
2018-01-02T06:26:11.905Z,26.9
2018-01-02T06:27:11.566Z,26.9
2018-01-02T06:28:11.900Z,26.9
2018-01-02T06:29:14.563Z,27
2018-01-02T06:30:12.042Z,26.9
2018-01-02T06:31:14.777Z,27
2018-01-02T06:32:11.842Z,27
2018-01-02T06:33:15.032Z,27
2018-01-02T06:34:12.197Z,27
2018-01-02T06:35:12.088Z,27
2018-01-02T06:36:12.352Z,26.9
2018-01-02T06:37:12.185Z,27
2018-01-02T06:38:15.391Z,26.9
2018-01-02T06:39:12.587Z,27
2018-01-02T06:40:12.276Z,27
2018-01-02T06:41:15.230Z,26.7
2018-01-02T06:42:15.266Z,26.2
2018-01-02T06:43:12.520Z,25.5
2018-01-02T06:44:12.544Z,25
2018-01-02T06:45:12.563Z,24.5
2018-01-02T06:46:15.503Z,24.2
2018-01-02T06:47:12.678Z,23.8
2018-01-02T06:48:12.746Z,23.5
2018-01-02T06:49:16.068Z,23.3
2018-01-02T06:50:15.788Z,23
2018-01-02T06:51:13.360Z,22.8
2018-01-02T06:52:16.238Z,22.6
2018-01-02T06:53:13.089Z,22.5
2018-01-02T06:54:16.274Z,22.4
2018-01-02T06:55:13.424Z,22.2
2018-01-02T06:56:13.477Z,22.1
2018-01-02T06:57:13.517Z,22
2018-01-02T06:58:13.484Z,22
2018-01-02T06:59:16.100Z,21.8
2018-01-02T07:00:13.280Z,21.7
2018-01-02T07:01:13.667Z,21.7
2018-01-02T07:02:13.650Z,21.6
2018-01-02T07:03:13.745Z,21.6
2018-01-02T07:04:13.719Z,21.5
2018-01-02T07:05:16.756Z,21.5
2018-01-02T07:06:16.757Z,21.5
2018-01-02T07:07:13.631Z,21.5
2018-01-02T07:08:14.055Z,21.3
2018-01-02T07:09:16.953Z,21.3
2018-01-02T07:10:13.800Z,21.2
2018-01-02T07:11:14.239Z,21.2
2018-01-02T07:12:17.196Z,21.2
2018-01-02T07:13:17.252Z,21.1
2018-01-02T07:14:14.336Z,21
2018-01-02T07:15:14.084Z,21
2018-01-02T07:16:17.229Z,20.9
2018-01-02T07:17:14.151Z,20.8
2018-01-02T07:18:14.584Z,20.8
2018-01-02T07:19:14.229Z,20.8
2018-01-02T07:20:16.716Z,20.7
2018-01-02T07:21:14.697Z,20.6
2018-01-02T07:22:17.636Z,20.6
2018-01-02T07:23:17.304Z,20.5
2018-01-02T07:24:17.715Z,20.5
2018-01-02T07:25:17.813Z,20.5
2018-01-02T07:26:14.661Z,20.5
2018-01-02T07:27:14.696Z,20.5
2018-01-02T07:28:17.912Z,20.5
2018-01-02T07:29:17.913Z,20.5
2018-01-02T07:30:14.761Z,20.5
2018-01-02T07:31:15.143Z,20.5
2018-01-02T07:32:14.848Z,20.5
2018-01-02T07:33:18.079Z,20.5
2018-01-02T07:34:17.782Z,20.5
2018-01-02T07:35:18.132Z,20.5
2018-01-02T07:36:15.034Z,20.5
2018-01-02T07:37:15.110Z,20.5
2018-01-02T07:38:18.335Z,20.5
2018-01-02T07:39:15.488Z,20.5
2018-01-02T07:40:15.598Z,20.5
2018-01-02T07:41:15.336Z,20.4
2018-01-02T07:42:15.373Z,20.5
2018-01-02T07:43:18.434Z,20.5
2018-01-02T07:44:15.566Z,20.5
2018-01-02T07:45:18.434Z,20.4
2018-01-02T07:46:15.633Z,20.4
2018-01-02T07:47:18.861Z,20.4
2018-01-02T07:48:18.953Z,20.4
2018-01-02T07:49:16.135Z,20.3
2018-01-02T07:50:15.804Z,20.3
2018-01-02T07:51:18.682Z,20.3
2018-01-02T07:52:16.143Z,20.3
2018-01-02T07:53:15.862Z,20.2
2018-01-02T07:54:18.805Z,20.2
2018-01-02T07:55:18.793Z,20.1
2018-01-02T07:56:15.994Z,20.1
2018-01-02T07:57:16.020Z,20.1
2018-01-02T07:58:16.390Z,20
2018-01-02T07:59:19.313Z,20
2018-01-02T08:00:19.374Z,20.1
2018-01-02T08:01:16.235Z,20.1
2018-01-02T08:02:19.449Z,20
2018-01-02T08:03:16.290Z,20
2018-01-02T08:04:19.544Z,20
2018-01-02T08:05:16.423Z,20
2018-01-02T08:06:16.685Z,20
2018-01-02T08:07:16.467Z,20
2018-01-02T08:08:16.560Z,19.9
2018-01-02T08:09:16.655Z,19.9
2018-01-02T08:10:16.997Z,19.9
2018-01-02T08:11:16.816Z,19.9
2018-01-02T08:12:16.812Z,19.9
2018-01-02T08:13:19.791Z,19.9
2018-01-02T08:14:17.369Z,19.9
2018-01-02T08:15:20.259Z,19.9
2018-01-02T08:16:17.456Z,19.9
2018-01-02T08:17:17.468Z,20.1
2018-01-02T08:18:20.455Z,20.3
2018-01-02T08:19:17.290Z,20.6
2018-01-02T08:20:17.712Z,20.9
2018-01-02T08:21:17.535Z,21.1
2018-01-02T08:22:17.908Z,21.4
2018-01-02T08:23:17.947Z,21.7
2018-01-02T08:24:17.650Z,21.9
2018-01-02T08:25:17.674Z,22.1
2018-01-02T08:26:17.762Z,22.3
2018-01-02T08:27:17.699Z,22.5
2018-01-02T08:28:17.662Z,22.7
2018-01-02T08:29:20.895Z,22.8
2018-01-02T08:30:20.938Z,23
2018-01-02T08:31:18.152Z,23.1
2018-01-02T08:32:17.925Z,23.2
2018-01-02T08:33:20.874Z,23.3
2018-01-02T08:34:18.287Z,23.5
2018-01-02T08:35:21.198Z,23.5
2018-01-02T08:36:18.293Z,23.6
2018-01-02T08:37:18.668Z,23.7
2018-01-02T08:38:18.159Z,23.8
2018-01-02T08:39:18.456Z,23.9
2018-01-02T08:40:18.582Z,23.9
2018-01-02T08:41:21.507Z,24.1
2018-01-02T08:42:18.329Z,24.1
2018-01-02T08:43:21.605Z,24.2
2018-01-02T08:44:21.607Z,24.3
2018-01-02T08:45:18.460Z,24.4
2018-01-02T08:46:21.694Z,24.4
2018-01-02T08:47:21.733Z,24.4
2018-01-02T08:48:18.900Z,24.5
2018-01-02T08:49:21.984Z,24.6
2018-01-02T08:50:21.539Z,24.6
2018-01-02T08:51:18.721Z,24.7
2018-01-02T08:52:21.999Z,24.7
2018-01-02T08:53:18.780Z,24.8
2018-01-02T08:54:19.212Z,24.9
2018-01-02T08:55:19.043Z,24.9
2018-01-02T08:56:21.892Z,25
2018-01-02T08:57:19.419Z,25
2018-01-02T08:58:21.961Z,25.1
2018-01-02T08:59:22.326Z,25.1
2018-01-02T09:00:19.571Z,25.1
2018-01-02T09:01:19.278Z,25.2
2018-01-02T09:02:22.666Z,25.2
2018-01-02T09:03:19.478Z,25.2
2018-01-02T09:04:22.668Z,25.2
2018-01-02T09:05:19.916Z,25.3
2018-01-02T09:06:19.833Z,25.4
2018-01-02T09:07:19.563Z,25.4
2018-01-02T09:08:22.395Z,25.5
2018-01-02T09:09:19.615Z,25.5
2018-01-02T09:10:22.908Z,25.5
2018-01-02T09:11:20.033Z,25.5
2018-01-02T09:12:23.038Z,25.6
2018-01-02T09:13:19.863Z,25.6
2018-01-02T09:14:20.198Z,25.6
2018-01-02T09:15:19.961Z,25.6
2018-01-02T09:16:20.317Z,25.7
2018-01-02T09:17:20.414Z,25.7
2018-01-02T09:18:22.969Z,25.8
2018-01-02T09:19:23.061Z,25.8
2018-01-02T09:20:20.409Z,25.8
2018-01-02T09:21:23.422Z,25.8
2018-01-02T09:22:20.369Z,25.8
2018-01-02T09:23:20.661Z,25.9
2018-01-02T09:24:20.727Z,26
2018-01-02T09:25:20.499Z,26
2018-01-02T09:26:21.035Z,26
2018-01-02T09:27:23.929Z,26
2018-01-02T09:28:21.030Z,26
2018-01-02T09:29:20.779Z,26.1
2018-01-02T09:30:24.007Z,26.1
2018-01-02T09:31:20.810Z,26.1
2018-01-02T09:32:21.267Z,26.2
2018-01-02T09:33:24.182Z,26.1
2018-01-02T09:34:21.369Z,26.2
2018-01-02T09:35:21.042Z,26.2
2018-01-02T09:36:24.366Z,26.2
2018-01-02T09:37:21.548Z,26.3
2018-01-02T09:38:21.204Z,26.3
2018-01-02T09:39:21.590Z,26.3
2018-01-02T09:40:21.362Z,26.4
2018-01-02T09:41:21.693Z,26.4
2018-01-02T09:42:24.616Z,26.4
2018-01-02T09:43:21.736Z,26.4
2018-01-02T09:44:21.815Z,26.4
2018-01-02T09:45:21.615Z,26.5
2018-01-02T09:46:21.593Z,26.5
2018-01-02T09:47:24.908Z,26.5
2018-01-02T09:48:22.091Z,26.5
2018-01-02T09:49:21.844Z,26.5
2018-01-02T09:50:22.551Z,26.5
2018-01-02T09:51:25.224Z,26.6
2018-01-02T09:52:24.898Z,26.6
2018-01-02T09:53:22.137Z,26.6
2018-01-02T09:54:22.127Z,26.6
2018-01-02T09:55:25.461Z,26.7
2018-01-02T09:56:22.269Z,26.6
2018-01-02T09:57:25.240Z,26.7
2018-01-02T09:58:25.631Z,26.8
2018-01-02T09:59:22.751Z,26.8
2018-01-02T10:00:22.485Z,26.8
2018-01-02T10:01:22.576Z,26.8
2018-01-02T10:02:22.601Z,26.9
2018-01-02T10:03:25.420Z,26.9
2018-01-02T10:04:22.721Z,26.9
2018-01-02T10:05:23.097Z,26.9
2018-01-02T10:06:23.103Z,26.9
2018-01-02T10:07:22.909Z,27
2018-01-02T10:08:23.219Z,27
2018-01-02T10:09:25.818Z,27
2018-01-02T10:10:25.787Z,26.9
2018-01-02T10:11:23.011Z,27
2018-01-02T10:12:25.890Z,27
2018-01-02T10:13:23.410Z,27
2018-01-02T10:14:23.397Z,27
2018-01-02T10:15:23.125Z,27.1
2018-01-02T10:16:23.170Z,27
2018-01-02T10:17:26.070Z,27.1
2018-01-02T10:18:23.226Z,27.1
2018-01-02T10:19:26.241Z,27.1
2018-01-02T10:20:23.429Z,27.2
2018-01-02T10:21:26.649Z,27.1
2018-01-02T10:22:23.372Z,27.2
2018-01-02T10:23:26.707Z,27.2
2018-01-02T10:24:26.396Z,27.2
2018-01-02T10:25:23.586Z,27.3
2018-01-02T10:26:23.879Z,27.3
2018-01-02T10:27:23.535Z,27.3
2018-01-02T10:28:26.893Z,27.3
2018-01-02T10:29:26.562Z,27.3
2018-01-02T10:30:23.664Z,27.3
2018-01-02T10:31:23.752Z,27.3
2018-01-02T10:32:23.861Z,27.3
2018-01-02T10:33:23.741Z,27.3
2018-01-02T10:34:24.145Z,27.3
2018-01-02T10:35:23.758Z,27.3
2018-01-02T10:36:24.191Z,27.3
2018-01-02T10:37:23.915Z,27.3
2018-01-02T10:38:26.859Z,27.3
2018-01-02T10:39:24.397Z,27.4
2018-01-02T10:40:27.323Z,27.3
2018-01-02T10:41:27.399Z,27.4
2018-01-02T10:42:27.498Z,27.3
2018-01-02T10:43:27.665Z,27.4
2018-01-02T10:44:25.076Z,27.4
2018-01-02T10:45:25.034Z,27.4
2018-01-02T10:46:24.594Z,27.5
2018-01-02T10:47:24.952Z,27.5
2018-01-02T10:48:24.998Z,27.4
2018-01-02T10:49:25.074Z,27.5
2018-01-02T10:50:27.693Z,27.5
2018-01-02T10:51:28.037Z,27.5
2018-01-02T10:52:24.834Z,27.6
2018-01-02T10:53:25.223Z,27.6
2018-01-02T10:54:24.894Z,27.7
2018-01-02T10:55:27.915Z,27.7
2018-01-02T10:56:25.379Z,27.7
2018-01-02T10:57:27.965Z,27.8
2018-01-02T10:58:25.147Z,27.9
2018-01-02T10:59:28.389Z,27.9
2018-01-02T11:00:25.588Z,28
2018-01-02T11:01:28.456Z,28.1
2018-01-02T11:02:28.689Z,28.1
2018-01-02T11:03:25.406Z,28.2
2018-01-02T11:04:28.650Z,28.3
2018-01-02T11:05:25.932Z,28.3
2018-01-02T11:06:25.618Z,28.5
2018-01-02T11:07:26.020Z,28.6
2018-01-02T11:08:28.693Z,28.7
2018-01-02T11:09:26.591Z,28.9
2018-01-02T11:10:26.110Z,29
2018-01-02T11:11:29.034Z,29.1
2018-01-02T11:12:26.128Z,29.2
2018-01-02T11:13:26.180Z,29.3
2018-01-02T11:14:26.092Z,29.4
2018-01-02T11:15:26.041Z,29.5
2018-01-02T11:16:29.223Z,29.8
2018-01-02T11:17:29.349Z,30
2018-01-02T11:18:26.093Z,30.2
2018-01-02T11:19:37.386Z,30.4
2018-01-02T11:20:30.582Z,30.4
2018-01-02T11:21:27.079Z,30.5
2018-01-02T11:22:27.556Z,30.6
2018-01-02T11:23:26.611Z,30.7
2018-01-02T11:24:29.221Z,30.8
2018-01-02T11:25:26.323Z,31
2018-01-02T11:26:26.480Z,31.1
2018-01-02T11:27:29.690Z,31.3
2018-01-02T11:28:29.706Z,31.4
2018-01-02T11:29:26.555Z,31.5
2018-01-02T11:30:27.054Z,31.5
2018-01-02T11:31:29.528Z,31.6
2018-01-02T11:32:29.887Z,31.7
2018-01-02T11:33:27.721Z,31.8
2018-01-02T11:34:26.827Z,31.7
2018-01-02T11:35:27.161Z,31.5
2018-01-02T11:36:30.095Z,31.2
2018-01-02T11:37:30.140Z,31
2018-01-02T11:38:29.897Z,30.8
2018-01-02T11:39:27.183Z,30.6
2018-01-02T11:40:27.624Z,30.4
2018-01-02T11:41:30.227Z,30.2
2018-01-02T11:42:30.162Z,30.1
2018-01-02T11:43:30.707Z,30
2018-01-02T11:44:30.440Z,29.9
2018-01-02T11:45:27.610Z,29.8
2018-01-02T11:46:27.307Z,29.8
2018-01-02T11:47:27.428Z,29.7
2018-01-02T11:48:30.350Z,29.6
2018-01-02T11:49:30.731Z,29.6
2018-01-02T11:50:27.821Z,29.5
2018-01-02T11:51:27.523Z,29.5
2018-01-02T11:52:27.586Z,29.4
2018-01-02T11:53:30.464Z,29.4
2018-01-02T11:54:30.493Z,29.4
2018-01-02T11:55:30.512Z,29.4
2018-01-02T11:56:27.676Z,29.3
2018-01-02T11:57:28.594Z,29.3
2018-01-02T11:58:32.069Z,29.3
2018-01-02T11:59:28.488Z,29.2
2018-01-02T12:00:32.605Z,29.2
2018-01-02T12:01:28.756Z,29.2
2018-01-02T12:02:29.399Z,29.2
2018-01-02T12:03:31.210Z,29.1
2018-01-02T12:04:31.253Z,29.2
2018-01-02T12:05:31.194Z,29.2
2018-01-02T12:06:27.992Z,29.1
2018-01-02T12:07:28.346Z,29.1
2018-01-02T12:08:31.261Z,29.1
2018-01-02T12:09:28.519Z,29.1
2018-01-02T12:10:31.486Z,29.1
2018-01-02T12:11:28.302Z,29.1
2018-01-02T12:12:31.187Z,29.1
2018-01-02T12:13:31.578Z,29
2018-01-02T12:14:28.387Z,29
2018-01-02T12:15:31.304Z,29
2018-01-02T12:16:28.769Z,29
2018-01-02T12:17:31.749Z,29
2018-01-02T12:18:28.639Z,29
2018-01-02T12:19:28.975Z,29
2018-01-02T12:20:28.962Z,29
2018-01-02T12:21:28.969Z,29.1
2018-01-02T12:22:28.675Z,29.3
2018-01-02T12:23:28.783Z,29.4
2018-01-02T12:24:28.828Z,29.5
2018-01-02T12:25:32.182Z,29.6
2018-01-02T12:26:29.001Z,29.6
2018-01-02T12:27:30.222Z,29.7
2018-01-02T12:28:34.084Z,29.7
2018-01-02T12:29:30.900Z,29.7
2018-01-02T12:30:30.895Z,29.7
2018-01-02T12:31:29.395Z,29.6
2018-01-02T12:32:29.477Z,29.6
2018-01-02T12:33:29.332Z,29.5
2018-01-02T12:34:29.608Z,29.5
2018-01-02T12:35:32.517Z,29.5
2018-01-02T12:36:29.714Z,29.6
2018-01-02T12:37:32.704Z,29.6
2018-01-02T12:38:29.919Z,29.8
2018-01-02T12:39:32.829Z,29.8
2018-01-02T12:40:29.612Z,29.9
2018-01-02T12:41:29.679Z,30.1
2018-01-02T12:42:29.773Z,30.2
2018-01-02T12:43:29.759Z,30.2
2018-01-02T12:44:30.085Z,30.3
2018-01-02T12:45:33.082Z,30.4
2018-01-02T12:46:32.811Z,30.3
2018-01-02T12:47:34.229Z,30.4
2018-01-02T12:48:31.068Z,30.4
2018-01-02T12:49:30.185Z,30.3
2018-01-02T12:50:30.722Z,30.4
2018-01-02T12:51:34.126Z,30.4
2018-01-02T12:52:30.684Z,30.3
2018-01-02T12:53:30.227Z,30.3
2018-01-02T12:54:30.237Z,30.3
2018-01-02T12:55:30.976Z,30.2
2018-01-02T12:56:30.254Z,30.3
2018-01-02T12:57:33.508Z,30.3
2018-01-02T12:58:30.319Z,30.3
2018-01-02T12:59:33.565Z,30.3
2018-01-02T13:00:30.473Z,30.3
2018-01-02T13:01:30.563Z,30.3
2018-01-02T13:02:33.815Z,30.3
2018-01-02T13:03:30.946Z,30.2
2018-01-02T13:04:33.896Z,30.3
2018-01-02T13:05:30.932Z,30.3
2018-01-02T13:06:30.856Z,30.2
2018-01-02T13:07:31.138Z,30.2
2018-01-02T13:08:33.820Z,30.2
2018-01-02T13:09:33.749Z,30.2
2018-01-02T13:10:34.015Z,30.2
2018-01-02T13:11:33.920Z,30.2
2018-01-02T13:12:31.157Z,30.2
2018-01-02T13:13:34.378Z,30.1
2018-01-02T13:14:34.459Z,30.2
2018-01-02T13:15:31.360Z,30.1
2018-01-02T13:16:34.276Z,30.1
2018-01-02T13:17:31.509Z,30.1
2018-01-02T13:18:34.623Z,30.1
2018-01-02T13:19:31.831Z,30
2018-01-02T13:20:31.852Z,30.1
2018-01-02T13:21:34.806Z,30
2018-01-02T13:22:34.819Z,30
2018-01-02T13:23:31.670Z,30